sensor_id;sensor_type;location;lat;lon;timestamp;temperature;humidity
15983;DHT22;14442;50.196;8.096;2023-11-19T00:00:25;23.90;46.90
15983;DHT22;14442;50.196;8.096;2023-11-19T00:02:50;23.90;46.90
15983;DHT22;14442;50.196;8.096;2023-11-19T00:05:17;23.90;46.90
15983;DHT22;14442;50.196;8.096;2023-11-19T00:07:45;23.90;46.90
15983;DHT22;14442;50.196;8.096;2023-11-19T00:10:13;23.90;46.80
15983;DHT22;14442;50.196;8.096;2023-11-19T00:12:45;24.00;46.90
15983;DHT22;14442;50.196;8.096;2023-11-19T00:15:12;24.00;46.90
15983;DHT22;14442;50.196;8.096;2023-11-19T00:17:39;24.00;46.90
15983;DHT22;14442;50.196;8.096;2023-11-19T00:20:10;24.00;46.90
15983;DHT22;14442;50.196;8.096;2023-11-19T00:22:37;24.00;46.90
15983;DHT22;14442;50.196;8.096;2023-11-19T00:25:07;24.00;46.90
15983;DHT22;14442;50.196;8.096;2023-11-19T00:27:33;24.00;46.90
15983;DHT22;14442;50.196;8.096;2023-11-19T00:30:00;24.00;46.90
15983;DHT22;14442;50.196;8.096;2023-11-19T00:32:27;24.00;46.90
15983;DHT22;14442;50.196;8.096;2023-11-19T00:34:55;24.00;46.90
15983;DHT22;14442;50.196;8.096;2023-11-19T00:37:21;24.00;46.90
15983;DHT22;14442;50.196;8.096;2023-11-19T00:39:48;24.00;46.90
15983;DHT22;14442;50.196;8.096;2023-11-19T00:42:16;24.00;46.90
15983;DHT22;14442;50.196;8.096;2023-11-19T00:44:43;24.00;46.90
15983;DHT22;14442;50.196;8.096;2023-11-19T00:47:10;24.00;46.90
15983;DHT22;14442;50.196;8.096;2023-11-19T00:49:36;24.00;46.90
15983;DHT22;14442;50.196;8.096;2023-11-19T00:52:03;24.00;47.00
15983;DHT22;14442;50.196;8.096;2023-11-19T00:54:31;24.00;46.90
15983;DHT22;14442;50.196;8.096;2023-11-19T00:56:58;24.00;46.90
15983;DHT22;14442;50.196;8.096;2023-11-19T00:59:28;24.00;46.90
15983;DHT22;14442;50.196;8.096;2023-11-19T01:01:55;24.00;46.80
15983;DHT22;14442;50.196;8.096;2023-11-19T01:04:22;24.00;46.90
15983;DHT22;14442;50.196;8.096;2023-11-19T01:06:49;24.00;46.90
15983;DHT22;14442;50.196;8.096;2023-11-19T01:09:16;24.00;46.90
15983;DHT22;14442;50.196;8.096;2023-11-19T01:11:43;24.00;46.90
15983;DHT22;14442;50.196;8.096;2023-11-19T01:14:10;24.10;47.00
15983;DHT22;14442;50.196;8.096;2023-11-19T01:16:38;24.00;46.90
15983;DHT22;14442;50.196;8.096;2023-11-19T01:19:04;24.00;46.90
15983;DHT22;14442;50.196;8.096;2023-11-19T01:21:31;24.10;47.00
15983;DHT22;14442;50.196;8.096;2023-11-19T01:23:58;24.00;46.90
15983;DHT22;14442;50.196;8.096;2023-11-19T01:26:25;24.00;46.90
15983;DHT22;14442;50.196;8.096;2023-11-19T01:28:52;24.00;47.00
15983;DHT22;14442;50.196;8.096;2023-11-19T01:31:19;24.00;46.90
15983;DHT22;14442;50.196;8.096;2023-11-19T01:33:47;24.00;47.60
15983;DHT22;14442;50.196;8.096;2023-11-19T01:36:14;24.00;47.00
15983;DHT22;14442;50.196;8.096;2023-11-19T01:38:40;24.00;47.00
15983;DHT22;14442;50.196;8.096;2023-11-19T01:41:07;24.00;47.00
15983;DHT22;14442;50.196;8.096;2023-11-19T01:43:34;24.00;47.00
15983;DHT22;14442;50.196;8.096;2023-11-19T01:46:02;24.00;47.00
15983;DHT22;14442;50.196;8.096;2023-11-19T01:48:29;24.00;47.00
15983;DHT22;14442;50.196;8.096;2023-11-19T01:50:57;24.00;47.00
15983;DHT22;14442;50.196;8.096;2023-11-19T01:53:25;24.00;47.00
15983;DHT22;14442;50.196;8.096;2023-11-19T01:55:52;23.90;47.00
15983;DHT22;14442;50.196;8.096;2023-11-19T01:58:19;24.00;47.00
15983;DHT22;14442;50.196;8.096;2023-11-19T02:00:46;24.00;47.00
15983;DHT22;14442;50.196;8.096;2023-11-19T02:03:14;24.00;47.00
15983;DHT22;14442;50.196;8.096;2023-11-19T02:05:41;24.00;47.00
15983;DHT22;14442;50.196;8.096;2023-11-19T02:08:10;24.00;47.00
15983;DHT22;14442;50.196;8.096;2023-11-19T02:10:39;24.00;47.00
15983;DHT22;14442;50.196;8.096;2023-11-19T02:13:05;24.00;47.00
15983;DHT22;14442;50.196;8.096;2023-11-19T02:15:33;24.00;47.00
15983;DHT22;14442;50.196;8.096;2023-11-19T02:18:17;23.90;47.00
15983;DHT22;14442;50.196;8.096;2023-11-19T02:20:44;23.90;47.00
15983;DHT22;14442;50.196;8.096;2023-11-19T02:23:13;23.90;47.00
15983;DHT22;14442;50.196;8.096;2023-11-19T02:25:40;23.90;47.00
15983;DHT22;14442;50.196;8.096;2023-11-19T02:28:09;23.90;47.00
15983;DHT22;14442;50.196;8.096;2023-11-19T02:30:37;23.90;47.00
15983;DHT22;14442;50.196;8.096;2023-11-19T02:33:04;23.90;47.10
15983;DHT22;14442;50.196;8.096;2023-11-19T02:35:32;23.90;47.10
15983;DHT22;14442;50.196;8.096;2023-11-19T02:37:59;23.90;47.10
15983;DHT22;14442;50.196;8.096;2023-11-19T02:40:26;23.90;47.10
15983;DHT22;14442;50.196;8.096;2023-11-19T02:42:53;23.90;47.10
15983;DHT22;14442;50.196;8.096;2023-11-19T02:45:22;23.90;47.10
15983;DHT22;14442;50.196;8.096;2023-11-19T02:47:49;23.90;47.10
15983;DHT22;14442;50.196;8.096;2023-11-19T02:50:16;23.80;47.00
15983;DHT22;14442;50.196;8.096;2023-11-19T02:52:43;23.90;47.10
15983;DHT22;14442;50.196;8.096;2023-11-19T02:55:11;23.80;47.10
15983;DHT22;14442;50.196;8.096;2023-11-19T02:57:39;23.80;47.10
15983;DHT22;14442;50.196;8.096;2023-11-19T03:00:12;23.80;47.10
15983;DHT22;14442;50.196;8.096;2023-11-19T03:02:41;23.80;47.10
15983;DHT22;14442;50.196;8.096;2023-11-19T03:05:12;23.80;47.20
15983;DHT22;14442;50.196;8.096;2023-11-19T03:07:41;23.80;47.10
15983;DHT22;14442;50.196;8.096;2023-11-19T03:10:09;23.80;47.20
15983;DHT22;14442;50.196;8.096;2023-11-19T03:12:39;23.80;47.20
15983;DHT22;14442;50.196;8.096;2023-11-19T03:15:07;23.80;47.20
15983;DHT22;14442;50.196;8.096;2023-11-19T03:17:35;23.80;47.20
15983;DHT22;14442;50.196;8.096;2023-11-19T03:20:04;23.70;47.20
15983;DHT22;14442;50.196;8.096;2023-11-19T03:22:32;23.70;47.20
15983;DHT22;14442;50.196;8.096;2023-11-19T03:24:59;23.70;47.20
15983;DHT22;14442;50.196;8.096;2023-11-19T03:27:26;23.70;47.30
15983;DHT22;14442;50.196;8.096;2023-11-19T03:29:53;23.70;47.20
15983;DHT22;14442;50.196;8.096;2023-11-19T03:32:20;23.70;47.20
15983;DHT22;14442;50.196;8.096;2023-11-19T03:34:46;23.70;47.30
15983;DHT22;14442;50.196;8.096;2023-11-19T03:37:14;23.70;47.30
15983;DHT22;14442;50.196;8.096;2023-11-19T03:39:42;23.70;47.30
15983;DHT22;14442;50.196;8.096;2023-11-19T03:42:09;23.70;47.30
15983;DHT22;14442;50.196;8.096;2023-11-19T03:44:37;23.70;47.30
15983;DHT22;14442;50.196;8.096;2023-11-19T03:47:04;23.70;47.40
15983;DHT22;14442;50.196;8.096;2023-11-19T03:49:31;23.60;47.30
15983;DHT22;14442;50.196;8.096;2023-11-19T03:51:58;23.60;47.30
15983;DHT22;14442;50.196;8.096;2023-11-19T03:54:27;23.60;47.30
15983;DHT22;14442;50.196;8.096;2023-11-19T03:56:53;23.60;47.30
15983;DHT22;14442;50.196;8.096;2023-11-19T03:59:20;23.60;47.30
15983;DHT22;14442;50.196;8.096;2023-11-19T04:01:47;23.60;47.40
15983;DHT22;14442;50.196;8.096;2023-11-19T04:04:13;23.60;47.40
15983;DHT22;14442;50.196;8.096;2023-11-19T04:06:40;23.60;47.40
15983;DHT22;14442;50.196;8.096;2023-11-19T04:09:07;23.60;47.40
15983;DHT22;14442;50.196;8.096;2023-11-19T04:11:35;23.60;47.40
15983;DHT22;14442;50.196;8.096;2023-11-19T04:14:02;23.60;47.50
15983;DHT22;14442;50.196;8.096;2023-11-19T04:16:29;23.60;47.50
15983;DHT22;14442;50.196;8.096;2023-11-19T04:18:55;23.50;47.40
15983;DHT22;14442;50.196;8.096;2023-11-19T04:21:22;23.50;47.50
15983;DHT22;14442;50.196;8.096;2023-11-19T04:23:49;23.50;47.50
15983;DHT22;14442;50.196;8.096;2023-11-19T04:26:16;23.50;47.40
15983;DHT22;14442;50.196;8.096;2023-11-19T04:28:44;23.50;47.50
15983;DHT22;14442;50.196;8.096;2023-11-19T04:31:11;23.50;47.50
15983;DHT22;14442;50.196;8.096;2023-11-19T04:33:37;23.50;47.50
15983;DHT22;14442;50.196;8.096;2023-11-19T04:36:05;23.50;47.50
15983;DHT22;14442;50.196;8.096;2023-11-19T04:38:32;23.50;47.50
15983;DHT22;14442;50.196;8.096;2023-11-19T04:41:00;23.40;47.40
15983;DHT22;14442;50.196;8.096;2023-11-19T04:43:27;23.40;47.50
15983;DHT22;14442;50.196;8.096;2023-11-19T04:45:55;23.40;47.50
15983;DHT22;14442;50.196;8.096;2023-11-19T04:48:23;23.40;47.50
15983;DHT22;14442;50.196;8.096;2023-11-19T04:50:50;23.40;47.50
15983;DHT22;14442;50.196;8.096;2023-11-19T04:53:18;23.40;47.50
15983;DHT22;14442;50.196;8.096;2023-11-19T04:55:44;23.40;47.60
15983;DHT22;14442;50.196;8.096;2023-11-19T04:58:11;23.40;47.60
15983;DHT22;14442;50.196;8.096;2023-11-19T05:00:38;23.40;47.60
15983;DHT22;14442;50.196;8.096;2023-11-19T05:03:06;23.40;47.60
15983;DHT22;14442;50.196;8.096;2023-11-19T05:05:33;23.40;47.70
15983;DHT22;14442;50.196;8.096;2023-11-19T05:08:00;23.40;47.60
15983;DHT22;14442;50.196;8.096;2023-11-19T05:10:27;23.40;47.70
15983;DHT22;14442;50.196;8.096;2023-11-19T05:12:53;23.40;47.70
15983;DHT22;14442;50.196;8.096;2023-11-19T05:15:22;23.40;47.70
15983;DHT22;14442;50.196;8.096;2023-11-19T05:17:49;23.30;47.50
15983;DHT22;14442;50.196;8.096;2023-11-19T05:20:17;23.40;47.60
15983;DHT22;14442;50.196;8.096;2023-11-19T05:22:44;23.30;47.60
15983;DHT22;14442;50.196;8.096;2023-11-19T05:25:11;23.30;47.60
15983;DHT22;14442;50.196;8.096;2023-11-19T05:27:38;23.30;47.60
15983;DHT22;14442;50.196;8.096;2023-11-19T05:30:05;23.30;47.60
15983;DHT22;14442;50.196;8.096;2023-11-19T05:32:34;23.30;47.60
15983;DHT22;14442;50.196;8.096;2023-11-19T05:35:01;23.30;47.60
15983;DHT22;14442;50.196;8.096;2023-11-19T05:37:29;23.30;47.60
15983;DHT22;14442;50.196;8.096;2023-11-19T05:39:55;23.30;47.60
15983;DHT22;14442;50.196;8.096;2023-11-19T05:42:22;23.30;47.70
15983;DHT22;14442;50.196;8.096;2023-11-19T05:44:49;23.30;47.70
15983;DHT22;14442;50.196;8.096;2023-11-19T05:47:17;23.30;47.70
15983;DHT22;14442;50.196;8.096;2023-11-19T05:49:44;23.30;47.70
15983;DHT22;14442;50.196;8.096;2023-11-19T05:52:10;23.20;47.60
15983;DHT22;14442;50.196;8.096;2023-11-19T05:54:39;23.30;47.70
15983;DHT22;14442;50.196;8.096;2023-11-19T05:57:05;23.30;47.70
15983;DHT22;14442;50.196;8.096;2023-11-19T05:59:34;23.30;47.80
15983;DHT22;14442;50.196;8.096;2023-11-19T06:02:01;23.30;47.80
15983;DHT22;14442;50.196;8.096;2023-11-19T06:04:28;23.30;47.80
15983;DHT22;14442;50.196;8.096;2023-11-19T06:06:55;23.30;47.80
15983;DHT22;14442;50.196;8.096;2023-11-19T06:09:22;23.20;47.70
15983;DHT22;14442;50.196;8.096;2023-11-19T06:11:51;23.20;47.80
15983;DHT22;14442;50.196;8.096;2023-11-19T06:14:18;23.20;47.80
15983;DHT22;14442;50.196;8.096;2023-11-19T06:16:44;23.20;47.80
15983;DHT22;14442;50.196;8.096;2023-11-19T06:19:11;23.20;47.90
15983;DHT22;14442;50.196;8.096;2023-11-19T06:21:38;23.20;47.80
15983;DHT22;14442;50.196;8.096;2023-11-19T06:24:05;23.20;47.90
15983;DHT22;14442;50.196;8.096;2023-11-19T06:26:32;23.20;47.90
15983;DHT22;14442;50.196;8.096;2023-11-19T06:29:00;23.20;47.90
15983;DHT22;14442;50.196;8.096;2023-11-19T06:31:27;23.10;47.90
15983;DHT22;14442;50.196;8.096;2023-11-19T06:33:53;23.20;47.90
15983;DHT22;14442;50.196;8.096;2023-11-19T06:36:20;23.10;47.90
15983;DHT22;14442;50.196;8.096;2023-11-19T06:38:47;23.10;47.90
15983;DHT22;14442;50.196;8.096;2023-11-19T06:41:13;23.10;47.90
15983;DHT22;14442;50.196;8.096;2023-11-19T06:43:40;23.10;47.90
15983;DHT22;14442;50.196;8.096;2023-11-19T06:46:15;23.10;48.00
15983;DHT22;14442;50.196;8.096;2023-11-19T06:48:42;23.00;47.90
15983;DHT22;14442;50.196;8.096;2023-11-19T06:51:09;23.10;48.00
15983;DHT22;14442;50.196;8.096;2023-11-19T06:53:36;23.10;48.00
15983;DHT22;14442;50.196;8.096;2023-11-19T06:56:03;23.00;47.90
15983;DHT22;14442;50.196;8.096;2023-11-19T06:58:31;23.00;48.00
15983;DHT22;14442;50.196;8.096;2023-11-19T07:01:00;23.00;48.00
15983;DHT22;14442;50.196;8.096;2023-11-19T07:03:28;23.00;48.00
15983;DHT22;14442;50.196;8.096;2023-11-19T07:05:54;23.00;48.00
15983;DHT22;14442;50.196;8.096;2023-11-19T07:08:21;23.00;48.10
15983;DHT22;14442;50.196;8.096;2023-11-19T07:10:48;23.00;48.00
15983;DHT22;14442;50.196;8.096;2023-11-19T07:13:15;23.00;48.10
15983;DHT22;14442;50.196;8.096;2023-11-19T07:15:41;23.00;48.10
15983;DHT22;14442;50.196;8.096;2023-11-19T07:18:08;23.00;48.10
15983;DHT22;14442;50.196;8.096;2023-11-19T07:20:38;23.00;48.10
15983;DHT22;14442;50.196;8.096;2023-11-19T07:23:05;23.00;48.10
15983;DHT22;14442;50.196;8.096;2023-11-19T07:25:32;23.00;48.10
15983;DHT22;14442;50.196;8.096;2023-11-19T07:28:00;22.90;48.10
15983;DHT22;14442;50.196;8.096;2023-11-19T07:30:29;22.90;48.10
15983;DHT22;14442;50.196;8.096;2023-11-19T07:32:56;22.90;48.10
15983;DHT22;14442;50.196;8.096;2023-11-19T07:35:22;22.90;48.10
15983;DHT22;14442;50.196;8.096;2023-11-19T07:37:50;22.90;48.10
15983;DHT22;14442;50.196;8.096;2023-11-19T07:40:18;22.90;48.10
15983;DHT22;14442;50.196;8.096;2023-11-19T07:42:45;22.90;48.10
15983;DHT22;14442;50.196;8.096;2023-11-19T07:45:12;22.90;48.20
15983;DHT22;14442;50.196;8.096;2023-11-19T07:47:38;22.90;48.10
15983;DHT22;14442;50.196;8.096;2023-11-19T07:50:06;22.90;48.20
15983;DHT22;14442;50.196;8.096;2023-11-19T07:52:33;22.90;48.20
15983;DHT22;14442;50.196;8.096;2023-11-19T07:55:01;22.90;48.20
15983;DHT22;14442;50.196;8.096;2023-11-19T07:57:27;22.90;48.20
15983;DHT22;14442;50.196;8.096;2023-11-19T07:59:56;22.90;48.20
15983;DHT22;14442;50.196;8.096;2023-11-19T08:02:23;22.90;48.30
15983;DHT22;14442;50.196;8.096;2023-11-19T08:04:50;22.80;48.20
15983;DHT22;14442;50.196;8.096;2023-11-19T08:07:17;22.80;48.20
15983;DHT22;14442;50.196;8.096;2023-11-19T08:09:44;22.90;48.30
15983;DHT22;14442;50.196;8.096;2023-11-19T08:12:12;22.90;48.20
15983;DHT22;14442;50.196;8.096;2023-11-19T08:14:40;22.80;48.10
15983;DHT22;14442;50.196;8.096;2023-11-19T08:17:06;22.80;48.10
15983;DHT22;14442;50.196;8.096;2023-11-19T08:19:33;22.80;48.10
15983;DHT22;14442;50.196;8.096;2023-11-19T08:22:00;22.90;48.10
15983;DHT22;14442;50.196;8.096;2023-11-19T08:24:27;22.90;48.20
15983;DHT22;14442;50.196;8.096;2023-11-19T08:26:54;22.80;48.20
15983;DHT22;14442;50.196;8.096;2023-11-19T08:29:22;22.80;48.10
15983;DHT22;14442;50.196;8.096;2023-11-19T08:31:50;22.90;48.10
15983;DHT22;14442;50.196;8.096;2023-11-19T08:34:16;22.90;48.20
15983;DHT22;14442;50.196;8.096;2023-11-19T08:36:43;22.90;48.20
15983;DHT22;14442;50.196;8.096;2023-11-19T08:39:10;22.80;48.10
15983;DHT22;14442;50.196;8.096;2023-11-19T08:41:36;22.80;48.10
15983;DHT22;14442;50.196;8.096;2023-11-19T08:44:05;22.70;48.10
15983;DHT22;14442;50.196;8.096;2023-11-19T08:46:33;22.70;48.20
15983;DHT22;14442;50.196;8.096;2023-11-19T08:49:00;22.60;48.30
15983;DHT22;14442;50.196;8.096;2023-11-19T08:51:27;22.60;48.40
15983;DHT22;14442;50.196;8.096;2023-11-19T08:53:53;22.50;48.30
15983;DHT22;14442;50.196;8.096;2023-11-19T08:56:21;22.50;48.30
15983;DHT22;14442;50.196;8.096;2023-11-19T08:58:47;22.50;48.40
15983;DHT22;14442;50.196;8.096;2023-11-19T09:01:14;22.50;48.60
15983;DHT22;14442;50.196;8.096;2023-11-19T09:03:42;22.50;48.50
15983;DHT22;14442;50.196;8.096;2023-11-19T09:06:09;22.60;48.50
15983;DHT22;14442;50.196;8.096;2023-11-19T09:08:35;22.60;48.50
15983;DHT22;14442;50.196;8.096;2023-11-19T09:11:06;22.60;48.50
15983;DHT22;14442;50.196;8.096;2023-11-19T09:13:34;22.60;48.40
15983;DHT22;14442;50.196;8.096;2023-11-19T09:16:01;22.60;48.50
15983;DHT22;14442;50.196;8.096;2023-11-19T09:18:30;22.60;48.30
15983;DHT22;14442;50.196;8.096;2023-11-19T09:20:58;22.60;48.50
15983;DHT22;14442;50.196;8.096;2023-11-19T09:23:25;22.60;48.50
15983;DHT22;14442;50.196;8.096;2023-11-19T09:25:53;22.60;48.40
15983;DHT22;14442;50.196;8.096;2023-11-19T09:28:20;22.50;48.40
15983;DHT22;14442;50.196;8.096;2023-11-19T09:30:47;22.60;48.50
15983;DHT22;14442;50.196;8.096;2023-11-19T09:33:13;22.70;48.40
15983;DHT22;14442;50.196;8.096;2023-11-19T09:35:40;22.80;48.30
15983;DHT22;14442;50.196;8.096;2023-11-19T09:38:08;22.90;48.20
15983;DHT22;14442;50.196;8.096;2023-11-19T09:40:35;22.90;48.20
15983;DHT22;14442;50.196;8.096;2023-11-19T09:43:04;23.00;48.20
15983;DHT22;14442;50.196;8.096;2023-11-19T09:45:32;23.00;48.10
15983;DHT22;14442;50.196;8.096;2023-11-19T09:48:07;22.90;48.10
15983;DHT22;14442;50.196;8.096;2023-11-19T09:50:34;23.00;48.30
15983;DHT22;14442;50.196;8.096;2023-11-19T09:53:01;23.00;48.40
15983;DHT22;14442;50.196;8.096;2023-11-19T09:55:29;23.10;48.40
15983;DHT22;14442;50.196;8.096;2023-11-19T09:57:57;23.30;48.00
15983;DHT22;14442;50.196;8.096;2023-11-19T10:00:26;23.40;47.70
15983;DHT22;14442;50.196;8.096;2023-11-19T10:02:54;23.50;47.50
15983;DHT22;14442;50.196;8.096;2023-11-19T10:05:24;23.70;47.30
15983;DHT22;14442;50.196;8.096;2023-11-19T10:07:51;23.60;47.30
15983;DHT22;14442;50.196;8.096;2023-11-19T10:10:18;23.60;47.30
15983;DHT22;14442;50.196;8.096;2023-11-19T10:12:46;23.70;47.30
15983;DHT22;14442;50.196;8.096;2023-11-19T10:15:20;23.80;47.20
15983;DHT22;14442;50.196;8.096;2023-11-19T10:17:47;23.70;47.30
15983;DHT22;14442;50.196;8.096;2023-11-19T10:20:13;23.70;47.30
15983;DHT22;14442;50.196;8.096;2023-11-19T10:22:40;23.80;47.30
15983;DHT22;14442;50.196;8.096;2023-11-19T10:25:21;23.80;47.20
15983;DHT22;14442;50.196;8.096;2023-11-19T10:27:50;23.90;47.10
15983;DHT22;14442;50.196;8.096;2023-11-19T10:30:18;23.90;47.20
15983;DHT22;14442;50.196;8.096;2023-11-19T10:32:45;23.80;47.30
15983;DHT22;14442;50.196;8.096;2023-11-19T10:35:11;23.80;47.40
15983;DHT22;14442;50.196;8.096;2023-11-19T10:37:39;24.00;47.30
15983;DHT22;14442;50.196;8.096;2023-11-19T10:40:07;24.00;47.20
15983;DHT22;14442;50.196;8.096;2023-11-19T10:42:35;24.00;47.20
15983;DHT22;14442;50.196;8.096;2023-11-19T10:45:05;24.00;47.30
15983;DHT22;14442;50.196;8.096;2023-11-19T10:47:34;24.00;47.30
15983;DHT22;14442;50.196;8.096;2023-11-19T10:50:01;24.00;47.30
15983;DHT22;14442;50.196;8.096;2023-11-19T10:52:28;24.00;47.10
15983;DHT22;14442;50.196;8.096;2023-11-19T10:54:59;24.10;47.00
15983;DHT22;14442;50.196;8.096;2023-11-19T10:57:28;24.10;46.90
15983;DHT22;14442;50.196;8.096;2023-11-19T11:00:02;24.10;46.90
15983;DHT22;14442;50.196;8.096;2023-11-19T11:02:34;24.10;47.10
15983;DHT22;14442;50.196;8.096;2023-11-19T11:05:02;24.20;46.90
15983;DHT22;14442;50.196;8.096;2023-11-19T11:07:30;24.30;46.70
15983;DHT22;14442;50.196;8.096;2023-11-19T11:09:58;24.30;46.60
15983;DHT22;14442;50.196;8.096;2023-11-19T11:12:25;24.40;46.50
15983;DHT22;14442;50.196;8.096;2023-11-19T11:14:53;24.30;46.70
15983;DHT22;14442;50.196;8.096;2023-11-19T11:17:24;24.20;47.10
15983;DHT22;14442;50.196;8.096;2023-11-19T11:19:54;24.10;47.40
15983;DHT22;14442;50.196;8.096;2023-11-19T11:22:22;24.00;47.60
15983;DHT22;14442;50.196;8.096;2023-11-19T11:25:15;24.00;47.60
15983;DHT22;14442;50.196;8.096;2023-11-19T11:27:55;24.00;47.60
15983;DHT22;14442;50.196;8.096;2023-11-19T11:30:31;24.00;47.70
15983;DHT22;14442;50.196;8.096;2023-11-19T11:33:10;24.00;47.70
15983;DHT22;14442;50.196;8.096;2023-11-19T11:35:49;24.00;47.70
15983;DHT22;14442;50.196;8.096;2023-11-19T11:38:21;23.90;47.60
15983;DHT22;14442;50.196;8.096;2023-11-19T11:41:14;23.90;47.70
15983;DHT22;14442;50.196;8.096;2023-11-19T11:43:44;23.90;47.60
15983;DHT22;14442;50.196;8.096;2023-11-19T11:49:12;23.90;47.50
15983;DHT22;14442;50.196;8.096;2023-11-19T11:52:02;23.90;47.50
15983;DHT22;14442;50.196;8.096;2023-11-19T11:54:32;23.90;47.40
15983;DHT22;14442;50.196;8.096;2023-11-19T11:57:05;24.10;47.50
15983;DHT22;14442;50.196;8.096;2023-11-19T11:59:37;24.20;47.20
15983;DHT22;14442;50.196;8.096;2023-11-19T12:02:04;24.30;47.20
15983;DHT22;14442;50.196;8.096;2023-11-19T12:04:34;24.40;47.00
15983;DHT22;14442;50.196;8.096;2023-11-19T12:07:06;24.30;47.10
15983;DHT22;14442;50.196;8.096;2023-11-19T12:09:33;24.30;47.10
15983;DHT22;14442;50.196;8.096;2023-11-19T12:12:17;23.80;47.50
15983;DHT22;14442;50.196;8.096;2023-11-19T12:15:02;23.60;47.60
15983;DHT22;14442;50.196;8.096;2023-11-19T12:17:37;23.60;47.50
15983;DHT22;14442;50.196;8.096;2023-11-19T12:20:10;23.40;47.40
15983;DHT22;14442;50.196;8.096;2023-11-19T12:22:39;23.40;47.60
15983;DHT22;14442;50.196;8.096;2023-11-19T12:25:07;23.30;46.70
15983;DHT22;14442;50.196;8.096;2023-11-19T12:27:34;22.80;46.20
15983;DHT22;14442;50.196;8.096;2023-11-19T12:30:01;22.80;47.10
15983;DHT22;14442;50.196;8.096;2023-11-19T12:32:37;22.90;47.20
15983;DHT22;14442;50.196;8.096;2023-11-19T12:35:05;23.00;46.90
15983;DHT22;14442;50.196;8.096;2023-11-19T12:37:32;23.20;46.70
15983;DHT22;14442;50.196;8.096;2023-11-19T12:40:00;22.90;47.10
15983;DHT22;14442;50.196;8.096;2023-11-19T12:42:35;23.10;46.70
15983;DHT22;14442;50.196;8.096;2023-11-19T12:45:02;23.30;46.40
15983;DHT22;14442;50.196;8.096;2023-11-19T12:47:29;23.40;46.30
15983;DHT22;14442;50.196;8.096;2023-11-19T12:49:56;23.50;46.20
15983;DHT22;14442;50.196;8.096;2023-11-19T12:52:23;23.60;45.80
15983;DHT22;14442;50.196;8.096;2023-11-19T12:54:50;23.70;46.10
15983;DHT22;14442;50.196;8.096;2023-11-19T12:57:18;23.50;46.20
15983;DHT22;14442;50.196;8.096;2023-11-19T12:59:54;23.50;46.00
15983;DHT22;14442;50.196;8.096;2023-11-19T13:02:22;23.40;46.00
15983;DHT22;14442;50.196;8.096;2023-11-19T13:04:49;23.30;46.20
15983;DHT22;14442;50.196;8.096;2023-11-19T13:07:20;23.40;45.90
15983;DHT22;14442;50.196;8.096;2023-11-19T13:09:47;23.50;46.50
15983;DHT22;14442;50.196;8.096;2023-11-19T13:12:15;23.60;46.10
15983;DHT22;14442;50.196;8.096;2023-11-19T13:14:43;23.70;47.90
15983;DHT22;14442;50.196;8.096;2023-11-19T13:17:15;23.90;49.10
15983;DHT22;14442;50.196;8.096;2023-11-19T13:19:41;23.90;49.20
15983;DHT22;14442;50.196;8.096;2023-11-19T13:22:08;23.80;48.90
15983;DHT22;14442;50.196;8.096;2023-11-19T13:24:35;23.70;48.50
15983;DHT22;14442;50.196;8.096;2023-11-19T13:27:03;23.30;47.40
15983;DHT22;14442;50.196;8.096;2023-11-19T13:29:29;23.10;48.10
15983;DHT22;14442;50.196;8.096;2023-11-19T13:31:57;23.20;47.60
15983;DHT22;14442;50.196;8.096;2023-11-19T13:34:25;23.30;47.50
15983;DHT22;14442;50.196;8.096;2023-11-19T13:36:52;23.30;47.40
15983;DHT22;14442;50.196;8.096;2023-11-19T13:39:18;23.30;47.20
15983;DHT22;14442;50.196;8.096;2023-11-19T13:41:48;23.50;46.80
15983;DHT22;14442;50.196;8.096;2023-11-19T13:44:15;23.60;46.80
15983;DHT22;14442;50.196;8.096;2023-11-19T13:46:44;23.70;46.50
15983;DHT22;14442;50.196;8.096;2023-11-19T13:49:12;23.90;46.50
15983;DHT22;14442;50.196;8.096;2023-11-19T13:51:39;24.10;46.50
15983;DHT22;14442;50.196;8.096;2023-11-19T13:54:06;24.20;46.50
15983;DHT22;14442;50.196;8.096;2023-11-19T13:56:32;24.20;46.70
15983;DHT22;14442;50.196;8.096;2023-11-19T13:58:59;24.20;47.10
15983;DHT22;14442;50.196;8.096;2023-11-19T14:01:26;24.20;47.40
15983;DHT22;14442;50.196;8.096;2023-11-19T14:03:53;24.30;47.60
15983;DHT22;14442;50.196;8.096;2023-11-19T14:06:21;24.30;47.40
15983;DHT22;14442;50.196;8.096;2023-11-19T14:08:48;24.30;47.20
15983;DHT22;14442;50.196;8.096;2023-11-19T14:11:15;24.30;47.20
15983;DHT22;14442;50.196;8.096;2023-11-19T14:13:41;24.30;47.30
15983;DHT22;14442;50.196;8.096;2023-11-19T14:16:08;24.30;47.30
15983;DHT22;14442;50.196;8.096;2023-11-19T14:18:36;24.20;47.20
15983;DHT22;14442;50.196;8.096;2023-11-19T14:21:04;24.10;47.20
15983;DHT22;14442;50.196;8.096;2023-11-19T14:23:32;24.10;47.50
15983;DHT22;14442;50.196;8.096;2023-11-19T14:25:58;24.10;47.80
15983;DHT22;14442;50.196;8.096;2023-11-19T14:28:25;24.20;48.10
15983;DHT22;14442;50.196;8.096;2023-11-19T14:30:52;24.20;48.00
15983;DHT22;14442;50.196;8.096;2023-11-19T14:33:22;24.20;48.10
15983;DHT22;14442;50.196;8.096;2023-11-19T14:35:49;24.20;48.10
15983;DHT22;14442;50.196;8.096;2023-11-19T14:38:16;24.20;48.20
15983;DHT22;14442;50.196;8.096;2023-11-19T14:40:44;24.20;48.10
15983;DHT22;14442;50.196;8.096;2023-11-19T14:43:10;24.20;48.10
15983;DHT22;14442;50.196;8.096;2023-11-19T14:45:37;24.20;48.10
15983;DHT22;14442;50.196;8.096;2023-11-19T14:48:04;24.20;48.20
15983;DHT22;14442;50.196;8.096;2023-11-19T14:50:31;24.20;48.00
15983;DHT22;14442;50.196;8.096;2023-11-19T14:52:58;24.20;48.10
15983;DHT22;14442;50.196;8.096;2023-11-19T14:55:25;24.20;48.10
15983;DHT22;14442;50.196;8.096;2023-11-19T14:57:53;24.20;48.20
15983;DHT22;14442;50.196;8.096;2023-11-19T15:00:20;24.20;48.20
15983;DHT22;14442;50.196;8.096;2023-11-19T15:02:46;24.20;48.30
15983;DHT22;14442;50.196;8.096;2023-11-19T15:05:13;24.20;48.50
15983;DHT22;14442;50.196;8.096;2023-11-19T15:07:40;24.20;48.40
15983;DHT22;14442;50.196;8.096;2023-11-19T15:10:07;24.20;48.40
15983;DHT22;14442;50.196;8.096;2023-11-19T15:12:36;24.20;48.60
15983;DHT22;14442;50.196;8.096;2023-11-19T15:15:07;24.20;48.50
15983;DHT22;14442;50.196;8.096;2023-11-19T15:17:35;24.20;48.60
15983;DHT22;14442;50.196;8.096;2023-11-19T15:20:03;24.20;48.70
15983;DHT22;14442;50.196;8.096;2023-11-19T15:22:30;24.20;48.70
15983;DHT22;14442;50.196;8.096;2023-11-19T15:24:57;24.20;48.80
15983;DHT22;14442;50.196;8.096;2023-11-19T15:27:23;24.20;48.80
15983;DHT22;14442;50.196;8.096;2023-11-19T15:29:50;24.20;48.90
15983;DHT22;14442;50.196;8.096;2023-11-19T15:32:19;24.20;48.80
15983;DHT22;14442;50.196;8.096;2023-11-19T15:34:46;24.20;48.90
15983;DHT22;14442;50.196;8.096;2023-11-19T15:37:12;24.20;48.90